sensor_id;sensor_type;location;lat;lon;timestamp;pressure;altitude;pressure_sealevel;temperature;humidity
17450;BME280;8842;51.244;7.102;2024-02-23T00:04:45;96711.38;;;6.91;100.00
17450;BME280;8842;51.244;7.102;2024-02-23T00:10:07;96729.19;;;7.05;100.00
17450;BME280;8842;51.244;7.102;2024-02-23T00:15:28;96743.54;;;7.03;100.00
17450;BME280;8842;51.244;7.102;2024-02-23T00:20:48;96766.61;;;6.97;100.00
17450;BME280;8842;51.244;7.102;2024-02-23T00:31:20;96779.35;;;6.64;100.00
17450;BME280;8842;51.244;7.102;2024-02-23T00:36:42;96802.96;;;6.40;100.00
17450;BME280;8842;51.244;7.102;2024-02-23T00:47:15;96832.58;;;6.34;100.00
17450;BME280;8842;51.244;7.102;2024-02-23T00:57:50;96836.74;;;6.14;100.00
17450;BME280;8842;51.244;7.102;2024-02-23T01:03:11;96866.45;;;5.99;100.00
17450;BME280;8842;51.244;7.102;2024-02-23T01:13:44;96870.03;;;6.16;100.00
17450;BME280;8842;51.244;7.102;2024-02-23T01:24:18;96886.56;;;6.26;100.00
17450;BME280;8842;51.244;7.102;2024-02-23T01:29:39;96897.39;;;6.19;100.00
17450;BME280;8842;51.244;7.102;2024-02-23T01:35:00;96901.44;;;6.13;100.00
17450;BME280;8842;51.244;7.102;2024-02-23T01:40:20;96905.91;;;6.13;100.00
17450;BME280;8842;51.244;7.102;2024-02-23T01:45:41;96914.22;;;6.22;100.00
17450;BME280;8842;51.244;7.102;2024-02-23T01:51:02;96915.70;;;6.24;100.00
17450;BME280;8842;51.244;7.102;2024-02-23T01:56:24;96921.84;;;6.29;100.00
17450;BME280;8842;51.244;7.102;2024-02-23T02:01:45;96924.49;;;6.33;100.00
17450;BME280;8842;51.244;7.102;2024-02-23T02:12:27;96926.23;;;6.20;100.00
17450;BME280;8842;51.244;7.102;2024-02-23T02:17:48;96928.38;;;6.25;100.00
17450;BME280;8842;51.244;7.102;2024-02-23T02:23:08;96931.54;;;6.28;100.00
17450;BME280;8842;51.244;7.102;2024-02-23T02:33:41;96950.42;;;6.20;100.00
17450;BME280;8842;51.244;7.102;2024-02-23T02:44:14;96965.54;;;6.18;100.00
17450;BME280;8842;51.244;7.102;2024-02-23T02:49:35;96979.62;;;6.08;100.00
17450;BME280;8842;51.244;7.102;2024-02-23T03:00:10;96981.63;;;6.10;100.00
17450;BME280;8842;51.244;7.102;2024-02-23T03:10:45;97004.91;;;6.01;100.00
17450;BME280;8842;51.244;7.102;2024-02-23T03:21:16;96998.45;;;5.96;100.00
17450;BME280;8842;51.244;7.102;2024-02-23T03:26:37;97001.41;;;5.97;100.00
17450;BME280;8842;51.244;7.102;2024-02-23T03:31:58;96994.94;;;5.91;100.00
17450;BME280;8842;51.244;7.102;2024-02-23T03:42:30;96998.80;;;5.83;100.00
17450;BME280;8842;51.244;7.102;2024-02-23T03:53:03;96998.17;;;5.85;100.00
17450;BME280;8842;51.244;7.102;2024-02-23T03:58:24;96999.48;;;5.85;100.00
17450;BME280;8842;51.244;7.102;2024-02-23T04:03:45;97009.69;;;5.84;100.00
17450;BME280;8842;51.244;7.102;2024-02-23T04:09:05;97015.28;;;5.85;100.00
17450;BME280;8842;51.244;7.102;2024-02-23T04:14:26;97021.84;;;5.81;100.00
17450;BME280;8842;51.244;7.102;2024-02-23T04:19:46;97034.58;;;5.76;100.00
17450;BME280;8842;51.244;7.102;2024-02-23T04:30:19;97045.25;;;5.84;100.00
17450;BME280;8842;51.244;7.102;2024-02-23T04:40:52;97043.20;;;5.69;100.00
17450;BME280;8842;51.244;7.102;2024-02-23T04:46:13;97047.30;;;5.67;100.00
17450;BME280;8842;51.244;7.102;2024-02-23T04:51:34;97049.68;;;5.74;100.00
17450;BME280;8842;51.244;7.102;2024-02-23T04:56:55;97039.22;;;5.78;100.00
17450;BME280;8842;51.244;7.102;2024-02-23T05:02:16;97051.06;;;5.78;100.00
17450;BME280;8842;51.244;7.102;2024-02-23T05:07:36;97055.09;;;5.73;100.00
17450;BME280;8842;51.244;7.102;2024-02-23T05:12:57;97060.83;;;5.82;100.00
17450;BME280;8842;51.244;7.102;2024-02-23T05:18:17;97068.55;;;5.70;100.00
17450;BME280;8842;51.244;7.102;2024-02-23T05:23:38;97076.45;;;5.70;100.00
17450;BME280;8842;51.244;7.102;2024-02-23T05:28:59;97064.56;;;5.66;100.00
17450;BME280;8842;51.244;7.102;2024-02-23T05:39:33;97057.44;;;5.76;100.00
17450;BME280;8842;51.244;7.102;2024-02-23T05:44:54;97060.47;;;5.67;100.00
17450;BME280;8842;51.244;7.102;2024-02-23T05:50:15;97050.66;;;5.73;100.00
17450;BME280;8842;51.244;7.102;2024-02-23T05:55:36;97048.80;;;5.70;100.00
17450;BME280;8842;51.244;7.102;2024-02-23T06:06:09;97035.05;;;5.62;100.00
17450;BME280;8842;51.244;7.102;2024-02-23T06:11:29;97036.87;;;5.48;100.00
17450;BME280;8842;51.244;7.102;2024-02-23T06:22:02;97030.33;;;5.52;100.00
17450;BME280;8842;51.244;7.102;2024-02-23T06:27:22;97027.19;;;5.49;100.00
17450;BME280;8842;51.244;7.102;2024-02-23T06:37:57;97020.28;;;5.52;100.00
17450;BME280;8842;51.244;7.102;2024-02-23T06:43:18;97030.18;;;5.40;100.00
17450;BME280;8842;51.244;7.102;2024-02-23T06:48:39;97031.12;;;5.35;100.00
17450;BME280;8842;51.244;7.102;2024-02-23T06:54:00;97041.36;;;5.38;100.00
17450;BME280;8842;51.244;7.102;2024-02-23T07:04:38;97032.53;;;5.57;100.00
17450;BME280;8842;51.244;7.102;2024-02-23T07:15:11;97025.91;;;5.53;100.00
17450;BME280;8842;51.244;7.102;2024-02-23T07:20:32;97026.34;;;5.48;100.00
17450;BME280;8842;51.244;7.102;2024-02-23T07:25:53;97024.98;;;5.44;100.00
17450;BME280;8842;51.244;7.102;2024-02-23T07:31:15;97021.02;;;5.71;100.00
17450;BME280;8842;51.244;7.102;2024-02-23T07:36:35;97024.80;;;6.13;100.00
17450;BME280;8842;51.244;7.102;2024-02-23T07:41:56;97025.24;;;6.27;100.00
17450;BME280;8842;51.244;7.102;2024-02-23T07:47:17;97017.75;;;6.36;100.00
17450;BME280;8842;51.244;7.102;2024-02-23T07:52:39;97014.73;;;6.70;100.00
17450;BME280;8842;51.244;7.102;2024-02-23T08:03:14;97016.08;;;6.95;100.00
17450;BME280;8842;51.244;7.102;2024-02-23T08:08:34;97022.77;;;7.11;100.00
17450;BME280;8842;51.244;7.102;2024-02-23T08:13:56;97028.13;;;7.27;100.00
17450;BME280;8842;51.244;7.102;2024-02-23T08:24:28;97038.22;;;7.32;100.00
17450;BME280;8842;51.244;7.102;2024-02-23T08:29:49;97047.58;;;7.52;100.00
17450;BME280;8842;51.244;7.102;2024-02-23T08:35:10;97058.48;;;7.90;100.00
17450;BME280;8842;51.244;7.102;2024-02-23T08:40:31;97053.02;;;7.50;100.00
17450;BME280;8842;51.244;7.102;2024-02-23T08:51:04;97042.68;;;7.65;100.00
17450;BME280;8842;51.244;7.102;2024-02-23T08:56:09;97058.02;;;7.32;100.00
17450;BME280;8842;51.244;7.102;2024-02-23T09:06:25;97058.20;;;7.64;100.00
17450;BME280;8842;51.244;7.102;2024-02-23T09:11:29;97061.48;;;7.62;100.00
17450;BME280;8842;51.244;7.102;2024-02-23T09:16:33;97056.58;;;7.71;100.00
17450;BME280;8842;51.244;7.102;2024-02-23T09:26:49;97068.16;;;7.78;100.00
17450;BME280;8842;51.244;7.102;2024-02-23T09:31:53;97074.99;;;7.55;100.00
17450;BME280;8842;51.244;7.102;2024-02-23T09:36:57;97075.69;;;7.61;100.00
17450;BME280;8842;51.244;7.102;2024-02-23T09:42:02;97062.49;;;7.65;100.00
17450;BME280;8842;51.244;7.102;2024-02-23T09:47:07;97060.96;;;7.92;100.00
17450;BME280;8842;51.244;7.102;2024-02-23T09:57:25;97067.88;;;7.89;100.00
17450;BME280;8842;51.244;7.102;2024-02-23T10:12:53;97075.02;;;8.00;100.00
17450;BME280;8842;51.244;7.102;2024-02-23T10:23:09;97085.59;;;7.96;100.00
17450;BME280;8842;51.244;7.102;2024-02-23T10:28:13;97089.66;;;7.87;100.00
17450;BME280;8842;51.244;7.102;2024-02-23T10:38:32;97093.69;;;8.03;100.00
17450;BME280;8842;51.244;7.102;2024-02-23T10:43:40;97090.92;;;8.16;96.18
17450;BME280;8842;51.244;7.102;2024-02-23T10:53:58;97116.55;;;8.74;91.50
17450;BME280;8842;51.244;7.102;2024-02-23T11:04:16;97107.96;;;8.96;91.07
17450;BME280;8842;51.244;7.102;2024-02-23T11:09:22;97093.89;;;8.79;94.87
17450;BME280;8842;51.244;7.102;2024-02-23T11:19:45;97093.55;;;8.66;93.96
17450;BME280;8842;51.244;7.102;2024-02-23T11:30:06;97099.12;;;8.39;92.38
17450;BME280;8842;51.244;7.102;2024-02-23T11:40:24;97090.51;;;8.29;91.40
17450;BME280;8842;51.244;7.102;2024-02-23T11:45:29;97087.19;;;8.31;97.88
17450;BME280;8842;51.244;7.102;2024-02-23T11:55:46;97097.09;;;8.25;98.20
17450;BME280;8842;51.244;7.102;2024-02-23T12:06:04;97083.58;;;8.32;97.73
17450;BME280;8842;51.244;7.102;2024-02-23T12:11:09;97090.54;;;8.41;99.41
17450;BME280;8842;51.244;7.102;2024-02-23T12:21:26;97083.25;;;8.43;96.47
17450;BME280;8842;51.244;7.102;2024-02-23T12:31:42;97083.60;;;8.48;99.67
17450;BME280;8842;51.244;7.102;2024-02-23T12:36:47;97094.86;;;8.54;98.54
17450;BME280;8842;51.244;7.102;2024-02-23T12:41:51;97095.17;;;8.55;100.00
17450;BME280;8842;51.244;7.102;2024-02-23T12:46:55;97103.78;;;8.65;100.00
17450;BME280;8842;51.244;7.102;2024-02-23T12:51:59;97094.19;;;8.48;95.01
17450;BME280;8842;51.244;7.102;2024-02-23T12:57:04;97099.66;;;8.67;95.06
17450;BME280;8842;51.244;7.102;2024-02-23T13:02:10;97103.79;;;8.57;99.46
17450;BME280;8842;51.244;7.102;2024-02-23T13:07:15;97106.73;;;8.46;98.00
17450;BME280;8842;51.244;7.102;2024-02-23T13:12:20;97100.15;;;8.54;100.00
17450;BME280;8842;51.244;7.102;2024-02-23T13:17:24;97101.48;;;8.66;100.00
17450;BME280;8842;51.244;7.102;2024-02-23T13:27:40;97095.84;;;8.65;95.84
17450;BME280;8842;51.244;7.102;2024-02-23T13:32:44;97096.19;;;8.74;94.84
17450;BME280;8842;51.244;7.102;2024-02-23T13:37:48;97100.84;;;9.04;92.34
17450;BME280;8842;51.244;7.102;2024-02-23T13:42:52;97103.28;;;9.38;92.89
17450;BME280;8842;51.244;7.102;2024-02-23T13:47:58;97094.02;;;9.46;87.81
17450;BME280;8842;51.244;7.102;2024-02-23T13:53:02;97104.73;;;9.60;85.77
17450;BME280;8842;51.244;7.102;2024-02-23T14:03:18;97091.67;;;9.55;81.78
17450;BME280;8842;51.244;7.102;2024-02-23T14:08:22;97097.16;;;9.33;84.34
17450;BME280;8842;51.244;7.102;2024-02-23T14:13:26;97091.88;;;9.29;84.54
17450;BME280;8842;51.244;7.102;2024-02-23T14:18:30;97090.88;;;9.46;87.07
17450;BME280;8842;51.244;7.102;2024-02-23T14:23:35;97092.19;;;9.42;81.43
17450;BME280;8842;51.244;7.102;2024-02-23T14:28:39;97108.38;;;9.63;87.07
17450;BME280;8842;51.244;7.102;2024-02-23T14:38:55;97104.13;;;9.34;87.71
17450;BME280;8842;51.244;7.102;2024-02-23T14:43:59;97108.27;;;9.13;88.30
17450;BME280;8842;51.244;7.102;2024-02-23T14:49:03;97101.82;;;9.31;92.37
17450;BME280;8842;51.244;7.102;2024-02-23T14:59:19;97103.63;;;9.31;88.80
17450;BME280;8842;51.244;7.102;2024-02-23T15:04:24;97113.91;;;9.30;85.46
17450;BME280;8842;51.244;7.102;2024-02-23T15:14:40;97109.44;;;9.14;87.68
17450;BME280;8842;51.244;7.102;2024-02-23T15:24:56;97102.81;;;8.86;95.64
17450;BME280;8842;51.244;7.102;2024-02-23T15:30:03;97116.70;;;8.76;94.66
17450;BME280;8842;51.244;7.102;2024-02-23T15:35:07;97109.05;;;8.53;98.04
17450;BME280;8842;51.244;7.102;2024-02-23T15:45:24;97102.16;;;8.80;100.00
17450;BME280;8842;51.244;7.102;2024-02-23T15:55:40;97124.64;;;8.80;100.00
17450;BME280;8842;51.244;7.102;2024-02-23T16:00:44;97133.88;;;8.64;100.00
17450;BME280;8842;51.244;7.102;2024-02-23T16:05:49;97122.23;;;8.29;100.00
17450;BME280;8842;51.244;7.102;2024-02-23T16:10:53;97131.73;;;8.18;100.00
17450;BME280;8842;51.244;7.102;2024-02-23T16:15:59;97131.82;;;8.34;100.00
17450;BME280;8842;51.244;7.102;2024-02-23T16:21:05;97117.27;;;8.26;100.00
17450;BME280;8842;51.244;7.102;2024-02-23T16:26:09;97122.64;;;8.12;100.00
17450;BME280;8842;51.244;7.102;2024-02-23T16:31:14;97128.88;;;8.03;100.00
17450;BME280;8842;51.244;7.102;2024-02-23T16:36:18;97122.70;;;7.91;100.00
17450;BME280;8842;51.244;7.102;2024-02-23T16:41:23;97125.50;;;7.89;100.00
17450;BME280;8842;51.244;7.102;2024-02-23T16:46:27;97122.73;;;7.95;100.00
17450;BME280;8842;51.244;7.102;2024-02-23T16:51:31;97131.62;;;7.90;100.00
17450;BME280;8842;51.244;7.102;2024-02-23T16:56:35;97141.80;;;7.77;100.00
17450;BME280;8842;51.244;7.102;2024-02-23T17:01:39;97148.65;;;7.62;100.00
17450;BME280;8842;51.244;7.102;2024-02-23T17:06:43;97148.42;;;7.81;100.00
17450;BME280;8842;51.244;7.102;2024-02-23T17:11:48;97155.14;;;8.01;100.00
17450;BME280;8842;51.244;7.102;2024-02-23T17:16:52;97165.74;;;8.13;100.00
17450;BME280;8842;51.244;7.102;2024-02-23T17:27:08;97172.98;;;8.07;100.00
17450;BME280;8842;51.244;7.102;2024-02-23T17:37:24;97182.21;;;7.99;100.00
17450;BME280;8842;51.244;7.102;2024-02-23T17:42:28;97173.44;;;7.94;100.00
17450;BME280;8842;51.244;7.102;2024-02-23T17:47:32;97173.59;;;7.97;100.00
17450;BME280;8842;51.244;7.102;2024-02-23T17:52:37;97184.48;;;7.94;100.00
17450;BME280;8842;51.244;7.102;2024-02-23T17:57:41;97183.70;;;8.01;100.00
17450;BME280;8842;51.244;7.102;2024-02-23T18:02:45;97192.64;;;8.04;100.00
17450;BME280;8842;51.244;7.102;2024-02-23T18:07:49;97197.14;;;8.12;100.00
17450;BME280;8842;51.244;7.102;2024-02-23T18:18:05;97188.22;;;7.83;100.00
17450;BME280;8842;51.244;7.102;2024-02-23T18:23:09;97202.88;;;7.74;100.00
17450;BME280;8842;51.244;7.102;2024-02-23T18:33:24;97202.56;;;7.55;100.00
17450;BME280;8842;51.244;7.102;2024-02-23T18:43:40;97202.78;;;7.40;100.00
17450;BME280;8842;51.244;7.102;2024-02-23T18:48:44;97203.39;;;7.34;100.00
17450;BME280;8842;51.244;7.102;2024-02-23T19:09:35;97204.53;;;7.32;100.00
17450;BME280;8842;51.244;7.102;2024-02-23T19:14:40;97211.80;;;7.30;100.00
17450;BME280;8842;51.244;7.102;2024-02-23T19:19:44;97208.77;;;7.25;100.00
17450;BME280;8842;51.244;7.102;2024-02-23T19:30:00;97216.12;;;7.17;100.00
17450;BME280;8842;51.244;7.102;2024-02-23T19:35:07;97220.30;;;7.06;100.00
17450;BME280;8842;51.244;7.102;2024-02-23T19:45:24;97230.58;;;7.27;100.00
17450;BME280;8842;51.244;7.102;2024-02-23T19:50:29;97249.56;;;7.30;100.00
17450;BME280;8842;51.244;7.102;2024-02-23T19:55:33;97257.45;;;7.09;100.00
17450;BME280;8842;51.244;7.102;2024-02-23T20:00:37;97252.62;;;6.87;100.00
17450;BME280;8842;51.244;7.102;2024-02-23T20:05:41;97256.80;;;6.80;100.00
17450;BME280;8842;51.244;7.102;2024-02-23T20:10:46;97253.91;;;6.56;100.00
17450;BME280;8842;51.244;7.102;2024-02-23T20:15:50;97254.97;;;6.36;100.00
17450;BME280;8842;51.244;7.102;2024-02-23T20:26:08;97249.83;;;6.21;100.00
17450;BME280;8842;51.244;7.102;2024-02-23T20:31:12;97255.14;;;6.25;100.00
17450;BME280;8842;51.244;7.102;2024-02-23T20:36:16;97255.30;;;6.37;100.00
17450;BME280;8842;51.244;7.102;2024-02-23T20:41:20;97249.88;;;6.38;100.00
17450;BME280;8842;51.244;7.102;2024-02-23T20:46:26;97252.14;;;6.33;100.00
17450;BME280;8842;51.244;7.102;2024-02-23T20:51:31;97263.33;;;6.45;100.00
17450;BME280;8842;51.244;7.102;2024-02-23T20:56:36;97260.53;;;6.33;100.00
17450;BME280;8842;51.244;7.102;2024-02-23T21:06:51;97270.05;;;6.30;100.00
17450;BME280;8842;51.244;7.102;2024-02-23T21:11:56;97271.48;;;6.38;100.00
17450;BME280;8842;51.244;7.102;2024-02-23T21:17:00;97269.13;;;6.35;100.00
17450;BME280;8842;51.244;7.102;2024-02-23T21:22:04;97272.10;;;6.36;100.00
17450;BME280;8842;51.244;7.102;2024-02-23T21:32:23;97271.97;;;6.51;100.00
17450;BME280;8842;51.244;7.102;2024-02-23T21:37:27;97280.69;;;6.65;100.00
17450;BME280;8842;51.244;7.102;2024-02-23T21:42:31;97267.14;;;6.60;100.00
17450;BME280;8842;51.244;7.102;2024-02-23T21:47:36;97275.19;;;6.58;100.00
17450;BME280;8842;51.244;7.102;2024-02-23T21:52:40;97272.11;;;6.49;100.00
17450;BME280;8842;51.244;7.102;2024-02-23T21:57:44;97281.34;;;6.63;100.00
17450;BME280;8842;51.244;7.102;2024-02-23T22:02:48;97283.98;;;6.63;100.00
17450;BME280;8842;51.244;7.102;2024-02-23T22:13:04;97278.05;;;6.65;100.00
17450;BME280;8842;51.244;7.102;2024-02-23T22:18:08;97278.20;;;6.63;100.00
17450;BME280;8842;51.244;7.102;2024-02-23T22:23:12;97277.03;;;6.62;100.00
17450;BME280;8842;51.244;7.102;2024-02-23T22:28:16;97282.13;;;6.73;100.00
17450;BME280;8842;51.244;7.102;2024-02-23T22:38:32;97277.72;;;6.77;100.00
17450;BME280;8842;51.244;7.102;2024-02-23T22:43:36;97276.70;;;6.61;100.00
17450;BME280;8842;51.244;7.102;2024-02-23T22:48:40;97279.92;;;6.55;100.00
17450;BME280;8842;51.244;7.102;2024-02-23T22:58:56;97278.50;;;6.60;100.00
17450;BME280;8842;51.244;7.102;2024-02-23T23:09:11;97272.51;;;6.41;100.00
17450;BME280;8842;51.244;7.102;2024-02-23T23:14:15;97275.36;;;6.34;100.00
17450;BME280;8842;51.244;7.102;2024-02-23T23:24:31;97281.14;;;6.33;100.00
17450;BME280;8842;51.244;7.102;2024-02-23T23:29:35;97276.02;;;6.32;100.00
17450;BME280;8842;51.244;7.102;2024-02-23T23:34:41;97285.91;;;6.34;100.00
17450;BME280;8842;51.244;7.102;2024-02-23T23:39:45;97288.78;;;6.27;100.00
17450;BME280;8842;51.244;7.102;2024-02-23T23:44:49;97285.91;;;6.20;100.00
17450;BME280;8842;51.244;7.102;2024-02-23T23:49:53;97291.95;;;6.17;100.00
